createdAt,value
2022-09-23T00:00:31.056Z,100271.91
2022-09-23T00:05:33.155Z,100268.72
2022-09-23T00:10:38.380Z,100271.75
2022-09-23T00:15:40.088Z,100261.03
2022-09-23T00:20:41.734Z,100264.78
2022-09-23T00:25:43.372Z,100263.88
2022-09-23T00:30:45.401Z,100257.66
2022-09-23T00:35:47.837Z,100262.06
2022-09-23T00:40:49.885Z,100252.88
2022-09-23T00:45:51.738Z,100256.44
2022-09-23T00:50:55.730Z,100250.63
2022-09-23T00:56:03.269Z,100253.53
2022-09-23T01:01:05.221Z,100249.47
2022-09-23T01:06:07.632Z,100243.47
2022-09-23T01:11:53.819Z,100234.59
2022-09-23T01:16:58.503Z,100224.97
2022-09-23T01:22:31.513Z,100236.09
2022-09-23T01:27:52.293Z,100236.00
2022-09-23T01:32:54.280Z,100230.66
2022-09-23T01:38:20.373Z,100222.31
2022-09-23T01:43:30.185Z,100221.28
2022-09-23T01:48:46.594Z,100215.72
2022-09-23T01:54:25.383Z,100207.91
2022-09-23T01:59:49.483Z,100202.91
2022-09-23T02:04:58.516Z,100200.50
2022-09-23T02:10:16.864Z,100202.44
2022-09-23T02:15:23.751Z,100197.38
2022-09-23T02:20:31.066Z,100192.38
2022-09-23T02:25:58.989Z,100196.97
2022-09-23T02:31:12.060Z,100191.44
2022-09-23T02:36:31.546Z,100193.16
2022-09-23T02:41:53.590Z,100188.63
2022-09-23T02:46:56.864Z,100191.00
2022-09-23T02:52:04.738Z,100186.16
2022-09-23T02:57:08.348Z,100180.25
2022-09-23T03:02:18.009Z,100181.28
2022-09-23T03:07:25.814Z,100184.56
2022-09-23T03:12:52.998Z,100183.69
2022-09-23T03:18:32.407Z,100176.63
2022-09-23T03:23:37.706Z,100176.41
2022-09-23T03:29:14.189Z,100167.03
2022-09-23T03:34:20.456Z,100163.47
2022-09-23T03:39:44.286Z,100167.44
2022-09-23T03:44:47.730Z,100159.53
2022-09-23T03:49:51.628Z,100152.53
2022-09-23T03:54:53.769Z,100148.09
2022-09-23T03:59:55.429Z,100142.13
2022-09-23T04:04:57.328Z,100138.97
2022-09-23T04:09:59.221Z,100136.81
2022-09-23T04:15:00.831Z,100138.19
2022-09-23T04:20:02.665Z,100139.78
2022-09-23T04:25:04.780Z,100130.09
2022-09-23T04:30:07.136Z,100132.56
2022-09-23T04:35:09.033Z,100130.75
2022-09-23T04:40:10.901Z,100135.97
2022-09-23T04:45:12.605Z,100138.69
2022-09-23T04:50:14.343Z,100130.91
2022-09-23T04:55:15.984Z,100135.97
2022-09-23T05:00:17.823Z,100131.84
2022-09-23T05:05:21.169Z,100142.41
2022-09-23T05:10:23.267Z,100138.69
2022-09-23T05:15:24.944Z,100136.88
2022-09-23T05:20:26.573Z,100139.63
2022-09-23T05:25:28.201Z,100154.09
2022-09-23T05:30:30.149Z,100134.03
2022-09-23T05:35:31.767Z,100138.31
2022-09-23T05:40:33.413Z,100137.09
2022-09-23T05:45:35.785Z,100142.13
2022-09-23T05:50:37.854Z,100134.44
2022-09-23T05:55:39.836Z,100136.03
2022-09-23T06:00:43.387Z,100132.00
2022-09-23T06:05:45.223Z,100132.09
2022-09-23T06:10:53.588Z,100130.69
2022-09-23T06:15:58.209Z,100138.28
2022-09-23T06:21:04.269Z,100135.47
2022-09-23T06:26:08.256Z,100137.38
2022-09-23T06:31:17.519Z,100130.13
2022-09-23T06:36:34.773Z,100129.16
2022-09-23T06:41:39.460Z,100125.94
2022-09-23T06:46:41.479Z,100119.31
2022-09-23T06:51:43.169Z,100112.19
2022-09-23T06:56:47.767Z,100119.06
2022-09-23T07:01:50.728Z,100112.25
2022-09-23T07:06:54.910Z,100112.13
2022-09-23T07:11:56.712Z,100116.59
2022-09-23T07:17:00.040Z,100109.28
2022-09-23T07:22:01.741Z,100112.69
2022-09-23T07:27:03.437Z,100119.28
2022-09-23T07:32:48.893Z,100113.16
2022-09-23T07:37:50.998Z,100125.09
2022-09-23T07:42:52.606Z,100123.31
2022-09-23T07:47:55.825Z,100122.78
2022-09-23T07:52:57.891Z,100123.44
2022-09-23T07:57:59.525Z,100118.34
2022-09-23T08:03:01.180Z,100111.16
2022-09-23T08:08:02.934Z,100121.94
2022-09-23T08:13:04.706Z,100112.91
2022-09-23T08:18:06.645Z,100101.66
2022-09-23T08:23:08.371Z,100102.06
2022-09-23T08:28:10.097Z,100111.22
2022-09-23T08:33:12.453Z,100100.03
2022-09-23T08:38:14.175Z,100099.03
2022-09-23T08:43:30.868Z,100088.16
2022-09-23T08:48:38.689Z,100082.00
2022-09-23T08:53:42.301Z,100087.31
2022-09-23T08:59:00.763Z,100088.97
2022-09-23T09:04:24.362Z,100087.63
2022-09-23T09:09:36.260Z,100075.34
2022-09-23T09:15:10.042Z,100074.22
2022-09-23T09:20:41.613Z,100074.59
2022-09-23T09:25:49.626Z,100069.69
2022-09-23T09:30:59.566Z,100068.91
2022-09-23T09:36:24.071Z,100060.41
2022-09-23T09:41:31.668Z,100056.00
2022-09-23T09:46:54.353Z,100045.97
2022-09-23T09:52:22.460Z,100036.53
2022-09-23T09:57:42.071Z,100029.84
2022-09-23T10:09:12.647Z,100012.84
2022-09-23T10:14:26.843Z,100008.66
2022-09-23T10:20:34.096Z,100001.69
2022-09-23T10:25:36.725Z,99993.19
2022-09-23T10:30:38.839Z,99989.44
2022-09-23T10:35:57.319Z,99987.66
2022-09-23T10:41:17.842Z,99986.13
2022-09-23T10:46:42.494Z,99975.53
2022-09-23T10:52:32.674Z,99980.44
2022-09-23T10:57:46.540Z,99973.09
2022-09-23T11:03:32.251Z,99956.53
2022-09-23T11:09:05.799Z,99957.50
2022-09-23T11:14:41.756Z,99947.28
2022-09-23T11:20:05.366Z,99948.09
2022-09-23T11:25:47.277Z,99945.78
2022-09-23T11:31:01.416Z,99939.16
2022-09-23T11:36:26.880Z,99926.78
2022-09-23T11:41:40.028Z,99925.53
2022-09-23T11:46:52.019Z,99918.75
2022-09-23T11:52:19.793Z,99914.38
2022-09-23T11:57:49.321Z,99894.75
2022-09-23T12:03:44.471Z,99896.84
2022-09-23T12:09:56.578Z,99886.00
2022-09-23T12:15:20.401Z,99873.34
2022-09-23T12:20:51.591Z,99864.13
2022-09-23T12:37:59.528Z,99855.19
2022-09-23T12:43:05.214Z,99848.59
2022-09-23T12:48:30.917Z,99846.50
2022-09-23T12:53:45.023Z,99842.84
2022-09-23T12:58:51.143Z,99841.88
2022-09-23T13:04:40.440Z,99833.78
2022-09-23T13:09:53.415Z,99825.06
2022-09-23T13:15:19.637Z,99824.38
2022-09-23T13:20:44.862Z,99806.91
2022-09-23T13:25:56.260Z,99800.63
2022-09-23T13:30:58.965Z,99793.22
2022-09-23T13:36:19.609Z,99786.22
2022-09-23T13:41:28.767Z,99777.44
2022-09-23T13:46:42.309Z,99769.31
2022-09-23T13:51:45.658Z,99778.25
2022-09-23T13:56:49.524Z,99771.41
2022-09-23T14:02:01.903Z,99776.66
2022-09-23T14:07:05.240Z,99768.72
2022-09-23T14:12:10.666Z,99759.22
2022-09-23T14:17:19.684Z,99761.97
2022-09-23T14:22:26.462Z,99762.91
2022-09-23T14:27:37.027Z,99760.50
2022-09-23T14:32:40.443Z,99748.94
2022-09-23T14:38:02.860Z,99749.22
2022-09-23T14:43:23.438Z,99750.88
2022-09-23T14:48:31.782Z,99746.84
2022-09-23T14:53:39.921Z,99753.34
2022-09-23T14:58:53.175Z,99740.47
2022-09-23T15:04:02.646Z,99733.50
2022-09-23T15:09:06.766Z,99732.81
2022-09-23T15:14:35.939Z,99726.84
2022-09-23T15:19:36.111Z,99717.00
2022-09-23T15:24:44.917Z,99722.81
2022-09-23T15:29:49.954Z,99724.88
2022-09-23T15:35:00.981Z,99704.75
2022-09-23T15:40:05.718Z,99712.03
2022-09-23T15:45:11.186Z,99707.94
2022-09-23T15:50:13.657Z,99704.81
2022-09-23T15:55:23.168Z,99720.91
2022-09-23T16:00:25.113Z,99712.97
2022-09-23T16:05:36.048Z,99714.81
2022-09-23T16:10:41.872Z,99716.69
2022-09-23T16:15:44.048Z,99717.53
2022-09-23T16:20:58.478Z,99718.97
2022-09-23T16:26:03.558Z,99728.84
2022-09-23T16:31:06.427Z,99720.56
2022-09-23T16:36:28.838Z,99714.75
2022-09-23T16:41:33.904Z,99702.78
2022-09-23T16:46:35.759Z,99699.19
2022-09-23T16:51:38.654Z,99713.69
2022-09-23T16:56:46.519Z,99727.16
2022-09-23T17:02:07.026Z,99736.03
2022-09-23T17:07:10.981Z,99733.19
2022-09-23T17:12:28.222Z,99729.25
2022-09-23T17:17:29.941Z,99728.16
2022-09-23T17:22:34.325Z,99727.38
2022-09-23T17:27:37.466Z,99730.09
2022-09-23T17:32:39.224Z,99730.59
2022-09-23T17:37:42.477Z,99717.22
2022-09-23T17:42:45.004Z,99718.53
2022-09-23T17:47:54.894Z,99718.22
2022-09-23T17:52:59.625Z,99716.28
2022-09-23T17:58:02.303Z,99720.97
2022-09-23T18:03:04.033Z,99721.81
2022-09-23T18:08:06.195Z,99723.75
2022-09-23T18:13:07.912Z,99719.78
2022-09-23T18:18:11.048Z,99725.78
2022-09-23T18:23:12.752Z,99722.69
2022-09-23T18:28:14.391Z,99728.91
2022-09-23T18:33:16.008Z,99726.19
2022-09-23T18:38:18.294Z,99738.88
2022-09-23T18:43:24.541Z,99739.00
2022-09-23T18:48:48.108Z,99732.91
2022-09-23T18:53:50.475Z,99726.81
2022-09-23T18:58:53.984Z,99724.53
2022-09-23T19:03:56.416Z,99728.69
2022-09-23T19:09:00.174Z,99736.38
2022-09-23T19:14:05.056Z,99727.75
2022-09-23T19:19:07.838Z,99721.78
2022-09-23T19:24:16.202Z,99734.69
2022-09-23T19:29:22.142Z,99730.44
2022-09-23T19:34:30.576Z,99728.75
2022-09-23T19:39:35.042Z,99737.19
2022-09-23T19:44:38.167Z,99735.38
2022-09-23T19:49:39.993Z,99735.63
2022-09-23T19:54:41.712Z,99729.69
2022-09-23T19:59:43.576Z,99736.41
2022-09-23T20:04:45.465Z,99721.09
2022-09-23T20:09:47.397Z,99729.53
2022-09-23T20:14:49.326Z,99719.09
2022-09-23T20:19:50.981Z,99723.44
2022-09-23T20:24:52.704Z,99716.41
2022-09-23T20:29:55.607Z,99712.72
2022-09-23T20:34:58.387Z,99713.34
2022-09-23T20:40:00.885Z,99711.97
2022-09-23T20:45:02.543Z,99706.97
2022-09-23T20:50:04.495Z,99715.00
2022-09-23T20:55:06.819Z,99708.31
2022-09-23T21:00:09.141Z,99715.75
2022-09-23T21:05:10.771Z,99712.09
2022-09-23T21:10:12.538Z,99712.09
2022-09-23T21:15:14.293Z,99710.03
2022-09-23T21:20:16.045Z,99721.84
2022-09-23T21:25:33.242Z,99718.50
2022-09-23T21:30:35.222Z,99697.00
2022-09-23T21:35:38.519Z,99707.47
2022-09-23T21:40:58.589Z,99697.94
2022-09-23T21:46:06.524Z,99692.81
2022-09-23T21:51:14.224Z,99703.28
2022-09-23T21:56:20.678Z,99708.34
2022-09-23T22:01:33.300Z,99708.22
2022-09-23T22:06:38.257Z,99708.75
2022-09-23T22:11:59.649Z,99705.41
2022-09-23T22:17:03.911Z,99712.00
2022-09-23T22:22:14.637Z,99704.13
2022-09-23T22:27:18.694Z,99712.41
2022-09-23T22:32:39.504Z,99715.44
2022-09-23T22:37:41.133Z,99719.19
2022-09-23T22:42:43.687Z,99713.78
2022-09-23T22:47:46.035Z,99707.25
2022-09-23T22:52:47.769Z,99707.09
2022-09-23T22:57:51.635Z,99704.91
2022-09-23T23:02:54.708Z,99711.94
2022-09-23T23:07:57.579Z,99709.94
2022-09-23T23:12:59.260Z,99697.47
2022-09-23T23:18:00.991Z,99698.25
2022-09-23T23:23:02.772Z,99701.00
2022-09-23T23:28:05.903Z,99691.84
2022-09-23T23:33:07.646Z,99691.63
2022-09-23T23:38:12.599Z,99689.97
2022-09-23T23:43:14.947Z,99692.88
2022-09-23T23:48:16.564Z,99683.84
2022-09-23T23:53:19.365Z,99680.25
2022-09-23T23:58:21.041Z,99673.97
